createdAt,value
2023-01-28T00:00:09.471Z,31.70
2023-01-28T00:02:37.752Z,31.00
2023-01-28T00:05:06.839Z,29.30
2023-01-28T00:07:35.001Z,32.20
2023-01-28T00:10:04.104Z,31.20
2023-01-28T00:12:33.607Z,28.60
2023-01-28T00:15:01.888Z,31.60
2023-01-28T00:17:30.579Z,29.50
2023-01-28T00:19:58.878Z,28.40
2023-01-28T00:22:27.146Z,27.70
2023-01-28T00:24:55.521Z,25.60
2023-01-28T00:27:23.799Z,28.20
2023-01-28T00:29:51.992Z,28.00
2023-01-28T00:32:20.394Z,27.90
2023-01-28T00:34:50.214Z,30.20
2023-01-28T00:37:18.525Z,29.20
2023-01-28T00:39:47.363Z,27.70
2023-01-28T00:42:16.602Z,26.40
2023-01-28T00:44:44.721Z,28.10
2023-01-28T00:47:13.128Z,28.40
2023-01-28T00:49:41.343Z,25.90
2023-01-28T00:52:11.729Z,26.60
2023-01-28T00:54:40.019Z,26.90
2023-01-28T00:57:08.280Z,26.60
2023-01-28T00:59:36.667Z,27.40
2023-01-28T01:02:12.690Z,26.50
2023-01-28T01:04:41.124Z,26.80
2023-01-28T01:07:09.497Z,28.10
2023-01-28T01:09:37.880Z,27.10
2023-01-28T01:12:06.776Z,26.60
2023-01-28T01:14:37.322Z,29.60
2023-01-28T01:17:05.592Z,30.30
2023-01-28T01:19:33.900Z,28.10
2023-01-28T01:22:02.737Z,27.80
2023-01-28T01:24:34.156Z,26.60
2023-01-28T01:27:02.977Z,29.50
2023-01-28T01:29:31.757Z,27.20
2023-01-28T01:32:00.948Z,28.80
2023-01-28T01:34:29.185Z,28.80
2023-01-28T01:36:57.558Z,27.40
2023-01-28T01:39:26.357Z,25.40
2023-01-28T01:41:54.638Z,31.50
2023-01-28T01:45:01.734Z,25.70
2023-01-28T01:47:49.430Z,25.20
2023-01-28T01:50:33.936Z,27.60
2023-01-28T01:53:12.447Z,26.10
2023-01-28T01:55:43.801Z,25.80
2023-01-28T01:58:13.974Z,22.90
2023-01-28T02:00:46.344Z,25.00
2023-01-28T06:20:51.920Z,26.70
2023-01-28T06:23:20.588Z,24.10
2023-01-28T06:25:48.784Z,21.80
2023-01-28T06:28:17.976Z,23.70
2023-01-28T06:30:49.728Z,23.60
2023-01-28T06:33:19.027Z,21.00
2023-01-28T06:35:49.306Z,24.30
2023-01-28T06:38:17.673Z,21.50
2023-01-28T06:40:52.375Z,21.00
2023-01-28T06:43:28.251Z,19.90
2023-01-28T06:45:59.210Z,23.80
2023-01-28T06:48:27.726Z,21.80
2023-01-28T06:50:56.253Z,21.60
2023-01-28T06:53:24.617Z,20.20
2023-01-28T10:10:43.994Z,18.30
2023-01-28T10:13:30.949Z,16.10
2023-01-28T10:16:14.512Z,16.40
2023-01-28T10:19:02.725Z,18.00
2023-01-28T10:21:39.519Z,19.30
2023-01-28T10:24:16.638Z,19.10
2023-01-28T10:26:45.578Z,18.00
2023-01-28T10:29:19.796Z,17.80
2023-01-28T10:31:55.687Z,19.00
2023-01-28T10:34:24.337Z,17.90
2023-01-28T10:36:53.449Z,16.80
2023-01-28T10:39:22.562Z,17.50
2023-01-28T10:41:57.773Z,20.60
2023-01-28T10:44:34.794Z,18.70
2023-01-28T10:47:07.338Z,16.20
2023-01-28T10:49:39.077Z,19.60
2023-01-28T10:52:12.134Z,18.20
2023-01-28T10:54:40.336Z,18.70
2023-01-28T10:57:14.644Z,18.90
2023-01-28T10:59:43.013Z,19.00
2023-01-28T11:02:33.001Z,19.10
2023-01-28T11:05:03.373Z,21.90
2023-01-28T11:07:32.269Z,18.10
2023-01-28T11:10:00.745Z,18.60
2023-01-28T11:12:30.331Z,20.60
2023-01-28T11:14:59.833Z,18.80
2023-01-28T11:17:32.381Z,26.10
2023-01-28T11:20:02.008Z,21.00
2023-01-28T11:22:38.495Z,24.20
2023-01-28T11:25:24.815Z,15.30
2023-01-28T11:27:53.400Z,19.00
2023-01-28T11:30:23.935Z,17.90
2023-01-28T11:33:19.336Z,19.00
2023-01-28T11:36:07.557Z,22.10
2023-01-28T11:38:36.012Z,22.00
2023-01-28T11:41:04.339Z,17.50
2023-01-28T11:43:32.821Z,16.10
2023-01-28T11:46:19.252Z,16.30
2023-01-28T11:51:56.956Z,14.30
2023-01-28T11:54:44.649Z,18.70
2023-01-28T11:57:24.315Z,15.60
2023-01-28T12:00:20.875Z,15.60
2023-01-28T12:02:57.592Z,14.60
2023-01-28T12:05:44.586Z,17.50
2023-01-28T12:08:28.660Z,16.00
2023-01-28T12:10:56.844Z,15.10
2023-01-28T12:13:43.913Z,17.10
2023-01-28T12:16:31.254Z,15.90
2023-01-28T12:19:39.220Z,18.40
2023-01-28T12:22:29.703Z,14.80
2023-01-28T12:25:10.132Z,16.60
2023-01-28T12:27:52.806Z,16.50
2023-01-28T12:30:44.403Z,19.90
2023-01-28T12:33:28.213Z,17.90
2023-01-28T12:36:17.906Z,16.80
2023-01-28T12:39:08.471Z,15.70
2023-01-28T12:41:41.560Z,18.30
2023-01-28T12:44:15.177Z,14.60
2023-01-28T12:47:10.664Z,15.90
2023-01-28T12:50:04.221Z,15.50
2023-01-28T12:52:37.339Z,15.80
2023-01-28T12:55:15.997Z,14.90
2023-01-28T12:57:46.971Z,15.80
2023-01-28T13:00:31.291Z,16.90
2023-01-28T13:03:12.135Z,14.60
2023-01-28T13:05:44.532Z,16.20
2023-01-28T13:08:24.251Z,20.00
2023-01-28T13:10:53.231Z,18.60
2023-01-28T13:13:42.389Z,14.50
2023-01-28T13:16:11.386Z,14.60
2023-01-28T13:18:51.605Z,14.90
2023-01-28T13:21:26.406Z,15.20
2023-01-28T13:24:20.822Z,15.60
2023-01-28T13:26:56.065Z,13.90
2023-01-28T13:29:24.690Z,14.70
2023-01-28T13:31:57.573Z,15.90
2023-01-28T13:34:33.732Z,16.50
2023-01-28T13:37:23.554Z,14.80
2023-01-28T13:40:00.338Z,15.20
2023-01-28T13:42:31.683Z,17.30
2023-01-28T13:45:15.578Z,16.40
2023-01-28T13:47:45.678Z,13.50
2023-01-28T13:50:20.499Z,16.10
2023-01-28T13:52:53.767Z,15.90
2023-01-28T13:55:42.777Z,14.90
2023-01-28T13:58:41.090Z,14.00
2023-01-28T14:01:47.269Z,14.60
2023-01-28T14:04:22.141Z,13.70
2023-01-28T14:06:55.251Z,14.50
2023-01-28T14:09:42.133Z,14.30
2023-01-28T14:12:13.816Z,16.00
2023-01-28T14:15:08.961Z,14.40
2023-01-28T22:00:37.125Z,8.50
2023-01-28T22:03:03.964Z,10.50
2023-01-28T22:05:31.989Z,12.00
2023-01-28T22:07:58.847Z,10.00
2023-01-28T22:10:25.990Z,11.60
2023-01-28T22:12:52.739Z,9.50
